sensor_id;sensor_type;location;lat;lon;timestamp;temperature;humidity
44359;DHT22;30077;52.474;13.326;2024-02-14T00:08:20;4.40;99.90
44359;DHT22;30077;52.474;13.326;2024-02-14T00:18:21;4.50;99.90
44359;DHT22;30077;52.474;13.326;2024-02-14T00:28:23;4.50;99.90
44359;DHT22;30077;52.474;13.326;2024-02-14T00:38:27;4.40;99.90
44359;DHT22;30077;52.474;13.326;2024-02-14T00:48:29;4.40;99.90
44359;DHT22;30077;52.474;13.326;2024-02-14T00:58:29;4.50;99.90
44359;DHT22;30077;52.474;13.326;2024-02-14T01:08:30;4.40;99.90
44359;DHT22;30077;52.474;13.326;2024-02-14T01:18:31;4.30;99.90
44359;DHT22;30077;52.474;13.326;2024-02-14T01:28:32;4.30;99.90
44359;DHT22;30077;52.474;13.326;2024-02-14T01:38:32;4.30;99.90
44359;DHT22;30077;52.474;13.326;2024-02-14T01:48:36;4.30;99.90
44359;DHT22;30077;52.474;13.326;2024-02-14T01:58:37;4.30;99.90
44359;DHT22;30077;52.474;13.326;2024-02-14T02:08:38;4.30;99.90
44359;DHT22;30077;52.474;13.326;2024-02-14T02:18:39;4.30;99.90
44359;DHT22;30077;52.474;13.326;2024-02-14T02:28:39;4.30;99.90
44359;DHT22;30077;52.474;13.326;2024-02-14T02:38:41;4.30;99.90
44359;DHT22;30077;52.474;13.326;2024-02-14T02:48:41;4.30;99.90
44359;DHT22;30077;52.474;13.326;2024-02-14T02:58:42;4.30;99.90
44359;DHT22;30077;52.474;13.326;2024-02-14T03:08:44;4.20;99.90
44359;DHT22;30077;52.474;13.326;2024-02-14T03:18:45;4.20;99.90
44359;DHT22;30077;52.474;13.326;2024-02-14T03:28:46;4.20;99.90
44359;DHT22;30077;52.474;13.326;2024-02-14T03:38:46;4.20;99.90
44359;DHT22;30077;52.474;13.326;2024-02-14T03:48:47;4.30;99.90
44359;DHT22;30077;52.474;13.326;2024-02-14T03:58:48;4.20;99.90
44359;DHT22;30077;52.474;13.326;2024-02-14T04:08:48;4.30;99.90
44359;DHT22;30077;52.474;13.326;2024-02-14T04:18:50;4.30;99.90
44359;DHT22;30077;52.474;13.326;2024-02-14T04:28:51;4.40;99.90
44359;DHT22;30077;52.474;13.326;2024-02-14T04:38:51;4.50;99.90
44359;DHT22;30077;52.474;13.326;2024-02-14T04:48:53;4.50;99.90
44359;DHT22;30077;52.474;13.326;2024-02-14T04:58:54;4.60;99.90
44359;DHT22;30077;52.474;13.326;2024-02-14T05:08:55;4.60;99.90
44359;DHT22;30077;52.474;13.326;2024-02-14T05:18:56;4.70;99.90
44359;DHT22;30077;52.474;13.326;2024-02-14T05:28:56;4.70;99.90
44359;DHT22;30077;52.474;13.326;2024-02-14T05:38:57;4.70;99.90
44359;DHT22;30077;52.474;13.326;2024-02-14T05:48:58;4.80;99.90
44359;DHT22;30077;52.474;13.326;2024-02-14T05:58:58;4.80;99.90
44359;DHT22;30077;52.474;13.326;2024-02-14T06:08:59;4.80;99.90
44359;DHT22;30077;52.474;13.326;2024-02-14T06:19:00;4.80;99.90
44359;DHT22;30077;52.474;13.326;2024-02-14T06:29:01;4.90;99.90
44359;DHT22;30077;52.474;13.326;2024-02-14T06:39:02;5.00;99.90
44359;DHT22;30077;52.474;13.326;2024-02-14T06:49:03;5.10;99.90
44359;DHT22;30077;52.474;13.326;2024-02-14T06:59:04;5.20;99.90
44359;DHT22;30077;52.474;13.326;2024-02-14T07:09:05;5.30;99.90
44359;DHT22;30077;52.474;13.326;2024-02-14T07:19:06;5.40;99.90
44359;DHT22;30077;52.474;13.326;2024-02-14T07:29:07;5.60;99.90
44359;DHT22;30077;52.474;13.326;2024-02-14T07:39:07;5.90;99.90
44359;DHT22;30077;52.474;13.326;2024-02-14T07:49:09;6.10;99.90
44359;DHT22;30077;52.474;13.326;2024-02-14T07:59:11;6.10;99.90
44359;DHT22;30077;52.474;13.326;2024-02-14T08:09:12;6.20;99.90
44359;DHT22;30077;52.474;13.326;2024-02-14T08:19:12;6.30;99.90
44359;DHT22;30077;52.474;13.326;2024-02-14T08:29:13;6.50;99.90
44359;DHT22;30077;52.474;13.326;2024-02-14T08:39:14;6.60;99.90
44359;DHT22;30077;52.474;13.326;2024-02-14T08:49:14;6.70;99.90
44359;DHT22;30077;52.474;13.326;2024-02-14T08:59:15;7.10;99.90
44359;DHT22;30077;52.474;13.326;2024-02-14T09:09:17;7.40;99.90
44359;DHT22;30077;52.474;13.326;2024-02-14T09:19:19;7.40;99.90
44359;DHT22;30077;52.474;13.326;2024-02-14T09:29:20;7.50;99.90
44359;DHT22;30077;52.474;13.326;2024-02-14T09:39:20;7.60;99.90
44359;DHT22;30077;52.474;13.326;2024-02-14T09:49:21;7.60;99.90
44359;DHT22;30077;52.474;13.326;2024-02-14T09:59:23;7.70;99.90
44359;DHT22;30077;52.474;13.326;2024-02-14T10:09:25;7.60;99.90
44359;DHT22;30077;52.474;13.326;2024-02-14T10:19:26;7.60;99.90
44359;DHT22;30077;52.474;13.326;2024-02-14T10:29:27;7.70;99.90
44359;DHT22;30077;52.474;13.326;2024-02-14T10:39:29;8.10;99.90
44359;DHT22;30077;52.474;13.326;2024-02-14T10:49:31;8.20;99.90
44359;DHT22;30077;52.474;13.326;2024-02-14T10:59:32;8.10;99.90
44359;DHT22;30077;52.474;13.326;2024-02-14T11:09:37;8.50;99.90
44359;DHT22;30077;52.474;13.326;2024-02-14T11:19:38;9.10;99.90
44359;DHT22;30077;52.474;13.326;2024-02-14T11:29:41;9.10;99.90
44359;DHT22;30077;52.474;13.326;2024-02-14T11:39:52;8.70;99.90
44359;DHT22;30077;52.474;13.326;2024-02-14T11:49:52;8.80;99.90
44359;DHT22;30077;52.474;13.326;2024-02-14T11:59:53;9.00;99.90
44359;DHT22;30077;52.474;13.326;2024-02-14T12:09:55;9.10;99.90
44359;DHT22;30077;52.474;13.326;2024-02-14T12:20:07;9.00;99.90
44359;DHT22;30077;52.474;13.326;2024-02-14T12:30:11;9.00;99.90
44359;DHT22;30077;52.474;13.326;2024-02-14T12:40:12;9.10;99.90
44359;DHT22;30077;52.474;13.326;2024-02-14T12:50:13;9.10;99.90
44359;DHT22;30077;52.474;13.326;2024-02-14T13:00:14;9.10;99.90
44359;DHT22;30077;52.474;13.326;2024-02-14T13:10:16;9.00;99.90
44359;DHT22;30077;52.474;13.326;2024-02-14T13:20:18;9.00;99.90
44359;DHT22;30077;52.474;13.326;2024-02-14T13:30:19;9.10;99.90
44359;DHT22;30077;52.474;13.326;2024-02-14T13:40:19;9.20;99.90
44359;DHT22;30077;52.474;13.326;2024-02-14T13:50:20;9.20;99.90
44359;DHT22;30077;52.474;13.326;2024-02-14T14:00:21;9.20;99.90
44359;DHT22;30077;52.474;13.326;2024-02-14T14:10:21;9.10;99.90
44359;DHT22;30077;52.474;13.326;2024-02-14T14:20:23;9.10;99.90
44359;DHT22;30077;52.474;13.326;2024-02-14T14:30:24;9.30;99.90
44359;DHT22;30077;52.474;13.326;2024-02-14T14:40:25;9.40;99.90
44359;DHT22;30077;52.474;13.326;2024-02-14T14:50:26;9.50;99.90
44359;DHT22;30077;52.474;13.326;2024-02-14T15:00:26;9.50;99.90
44359;DHT22;30077;52.474;13.326;2024-02-14T15:10:27;9.60;99.90
44359;DHT22;30077;52.474;13.326;2024-02-14T15:20:28;9.70;99.90
44359;DHT22;30077;52.474;13.326;2024-02-14T15:30:30;9.80;99.90
44359;DHT22;30077;52.474;13.326;2024-02-14T15:40:51;9.70;99.90
44359;DHT22;30077;52.474;13.326;2024-02-14T15:50:55;9.60;99.90
44359;DHT22;30077;52.474;13.326;2024-02-14T16:00:56;9.50;99.90
44359;DHT22;30077;52.474;13.326;2024-02-14T16:10:57;9.50;99.90
44359;DHT22;30077;52.474;13.326;2024-02-14T16:20:59;9.40;99.90
44359;DHT22;30077;52.474;13.326;2024-02-14T16:31:00;9.40;99.90
44359;DHT22;30077;52.474;13.326;2024-02-14T16:41:00;9.30;99.90
44359;DHT22;30077;52.474;13.326;2024-02-14T16:51:01;9.30;99.90
44359;DHT22;30077;52.474;13.326;2024-02-14T17:01:02;9.30;99.90
44359;DHT22;30077;52.474;13.326;2024-02-14T17:11:03;9.40;99.90
44359;DHT22;30077;52.474;13.326;2024-02-14T17:21:04;9.40;99.90
44359;DHT22;30077;52.474;13.326;2024-02-14T17:31:04;9.30;99.90
44359;DHT22;30077;52.474;13.326;2024-02-14T17:41:05;9.30;99.90
44359;DHT22;30077;52.474;13.326;2024-02-14T17:51:08;9.40;99.90
44359;DHT22;30077;52.474;13.326;2024-02-14T18:01:10;9.40;99.90
44359;DHT22;30077;52.474;13.326;2024-02-14T18:11:11;9.50;99.90
44359;DHT22;30077;52.474;13.326;2024-02-14T18:21:13;9.60;99.90
44359;DHT22;30077;52.474;13.326;2024-02-14T18:31:13;9.60;99.90
44359;DHT22;30077;52.474;13.326;2024-02-14T18:41:14;9.50;99.90
44359;DHT22;30077;52.474;13.326;2024-02-14T18:51:15;9.50;99.90
44359;DHT22;30077;52.474;13.326;2024-02-14T19:01:22;9.50;99.90
44359;DHT22;30077;52.474;13.326;2024-02-14T19:11:25;9.50;99.90
44359;DHT22;30077;52.474;13.326;2024-02-14T19:21:25;9.60;99.90
44359;DHT22;30077;52.474;13.326;2024-02-14T19:31:26;9.60;99.90
44359;DHT22;30077;52.474;13.326;2024-02-14T19:41:27;9.70;99.90
44359;DHT22;30077;52.474;13.326;2024-02-14T19:51:28;9.70;99.90
44359;DHT22;30077;52.474;13.326;2024-02-14T20:01:31;9.70;99.90
44359;DHT22;30077;52.474;13.326;2024-02-14T20:11:31;9.80;99.90
44359;DHT22;30077;52.474;13.326;2024-02-14T20:21:32;9.80;99.90
44359;DHT22;30077;52.474;13.326;2024-02-14T20:31:33;9.90;99.90
44359;DHT22;30077;52.474;13.326;2024-02-14T20:41:35;9.80;99.90
44359;DHT22;30077;52.474;13.326;2024-02-14T20:51:36;9.80;99.90
44359;DHT22;30077;52.474;13.326;2024-02-14T21:01:37;9.80;99.90
44359;DHT22;30077;52.474;13.326;2024-02-14T21:11:38;9.80;99.90
44359;DHT22;30077;52.474;13.326;2024-02-14T21:21:39;9.70;99.90
44359;DHT22;30077;52.474;13.326;2024-02-14T21:31:40;9.70;99.90
44359;DHT22;30077;52.474;13.326;2024-02-14T21:41:44;9.60;99.90
44359;DHT22;30077;52.474;13.326;2024-02-14T21:51:46;9.60;99.90
44359;DHT22;30077;52.474;13.326;2024-02-14T22:01:48;9.50;99.90
44359;DHT22;30077;52.474;13.326;2024-02-14T22:11:49;9.50;99.90
44359;DHT22;30077;52.474;13.326;2024-02-14T22:21:49;9.50;99.90
44359;DHT22;30077;52.474;13.326;2024-02-14T22:31:51;9.50;99.90
44359;DHT22;30077;52.474;13.326;2024-02-14T22:41:52;9.50;99.90
44359;DHT22;30077;52.474;13.326;2024-02-14T22:51:54;9.40;99.90
44359;DHT22;30077;52.474;13.326;2024-02-14T23:01:55;9.50;99.90
44359;DHT22;30077;52.474;13.326;2024-02-14T23:11:56;9.50;99.90
44359;DHT22;30077;52.474;13.326;2024-02-14T23:21:57;9.40;99.90
44359;DHT22;30077;52.474;13.326;2024-02-14T23:31:58;9.40;99.90
44359;DHT22;30077;52.474;13.326;2024-02-14T23:41:58;9.40;99.90
44359;DHT22;30077;52.474;13.326;2024-02-14T23:51:59;9.40;99.90
